sensor_id;sensor_type;location;lat;lon;timestamp;pressure;altitude;pressure_sealevel;temperature;humidity
72285;BME280;60220;53.552;10.092;2023-04-22T00:00:50;101124.44;;;12.64;45.45
72285;BME280;60220;53.552;10.092;2023-04-22T00:03:21;101116.38;;;12.73;45.31
72285;BME280;60220;53.552;10.092;2023-04-22T00:05:47;101112.50;;;12.95;44.48
72285;BME280;60220;53.552;10.092;2023-04-22T00:08:14;101111.19;;;12.67;45.11
72285;BME280;60220;53.552;10.092;2023-04-22T00:10:42;101107.00;;;13.07;44.48
72285;BME280;60220;53.552;10.092;2023-04-22T00:13:09;101109.81;;;12.41;44.80
72285;BME280;60220;53.552;10.092;2023-04-22T00:15:35;101093.81;;;12.57;44.84
72285;BME280;60220;53.552;10.092;2023-04-22T00:18:02;101097.53;;;12.42;45.45
72285;BME280;60220;53.552;10.092;2023-04-22T00:20:29;101092.56;;;12.79;44.88
72285;BME280;60220;53.552;10.092;2023-04-22T00:22:57;101086.78;;;12.56;45.54
72285;BME280;60220;53.552;10.092;2023-04-22T00:25:23;101086.41;;;12.80;44.19
72285;BME280;60220;53.552;10.092;2023-04-22T00:27:54;101089.00;;;13.33;43.31
72285;BME280;60220;53.552;10.092;2023-04-22T00:30:21;101077.13;;;12.56;44.84
72285;BME280;60220;53.552;10.092;2023-04-22T00:32:48;101077.19;;;12.53;44.52
72285;BME280;60220;53.552;10.092;2023-04-22T00:35:17;101076.41;;;12.46;45.16
72285;BME280;60220;53.552;10.092;2023-04-22T00:37:44;101070.44;;;12.89;44.09
72285;BME280;60220;53.552;10.092;2023-04-22T00:40:12;101062.84;;;12.71;44.39
72285;BME280;60220;53.552;10.092;2023-04-22T00:42:40;101071.63;;;12.71;45.14
72285;BME280;60220;53.552;10.092;2023-04-22T00:45:11;101065.53;;;12.68;45.20
72285;BME280;60220;53.552;10.092;2023-04-22T00:47:43;101064.50;;;12.76;44.95
72285;BME280;60220;53.552;10.092;2023-04-22T00:50:12;101064.56;;;13.24;44.01
72285;BME280;60220;53.552;10.092;2023-04-22T00:52:38;101059.03;;;13.38;43.38
72285;BME280;60220;53.552;10.092;2023-04-22T00:55:08;101058.25;;;12.83;45.14
72285;BME280;60220;53.552;10.092;2023-04-22T00:57:38;101057.88;;;12.52;46.16
72285;BME280;60220;53.552;10.092;2023-04-22T01:00:06;101056.97;;;13.06;44.89
72285;BME280;60220;53.552;10.092;2023-04-22T01:02:36;101047.97;;;12.67;45.53
72285;BME280;60220;53.552;10.092;2023-04-22T01:05:06;101040.63;;;12.87;44.20
72285;BME280;60220;53.552;10.092;2023-04-22T01:07:34;101045.59;;;12.53;45.76
72285;BME280;60220;53.552;10.092;2023-04-22T01:10:03;101050.50;;;12.19;45.87
72285;BME280;60220;53.552;10.092;2023-04-22T01:12:30;101043.81;;;13.04;44.86
72285;BME280;60220;53.552;10.092;2023-04-22T01:14:57;101051.59;;;13.10;45.26
72285;BME280;60220;53.552;10.092;2023-04-22T01:17:24;101048.13;;;12.59;45.31
72285;BME280;60220;53.552;10.092;2023-04-22T01:19:52;101047.78;;;12.79;45.29
72285;BME280;60220;53.552;10.092;2023-04-22T01:22:20;101044.03;;;12.92;45.89
72285;BME280;60220;53.552;10.092;2023-04-22T01:24:52;101039.59;;;12.43;46.92
72285;BME280;60220;53.552;10.092;2023-04-22T01:27:19;101050.94;;;12.99;45.93
72285;BME280;60220;53.552;10.092;2023-04-22T01:29:50;101039.38;;;13.08;45.54
72285;BME280;60220;53.552;10.092;2023-04-22T01:32:17;101036.94;;;12.95;44.75
72285;BME280;60220;53.552;10.092;2023-04-22T01:34:44;101040.09;;;13.17;44.76
72285;BME280;60220;53.552;10.092;2023-04-22T01:37:12;101032.16;;;12.70;45.64
72285;BME280;60220;53.552;10.092;2023-04-22T01:39:41;101018.94;;;13.20;44.92
72285;BME280;60220;53.552;10.092;2023-04-22T01:42:09;101025.84;;;13.27;44.56
72285;BME280;60220;53.552;10.092;2023-04-22T01:44:36;101019.06;;;13.14;44.97
72285;BME280;60220;53.552;10.092;2023-04-22T01:47:03;101019.66;;;13.70;43.83
72285;BME280;60220;53.552;10.092;2023-04-22T01:49:30;101016.69;;;12.48;46.32
72285;BME280;60220;53.552;10.092;2023-04-22T01:51:59;101011.59;;;12.39;47.03
72285;BME280;60220;53.552;10.092;2023-04-22T01:54:26;101016.56;;;12.01;47.74
72285;BME280;60220;53.552;10.092;2023-04-22T01:56:53;101004.16;;;12.64;47.26
72285;BME280;60220;53.552;10.092;2023-04-22T01:59:24;100995.63;;;12.48;46.00
72285;BME280;60220;53.552;10.092;2023-04-22T02:01:51;100997.84;;;12.73;45.63
72285;BME280;60220;53.552;10.092;2023-04-22T02:04:17;101006.25;;;12.42;47.21
72285;BME280;60220;53.552;10.092;2023-04-22T02:06:44;101001.22;;;12.29;46.94
72285;BME280;60220;53.552;10.092;2023-04-22T02:09:11;100988.63;;;12.49;46.69
72285;BME280;60220;53.552;10.092;2023-04-22T02:11:37;100998.75;;;12.70;47.31
72285;BME280;60220;53.552;10.092;2023-04-22T02:14:04;100995.13;;;12.77;46.99
72285;BME280;60220;53.552;10.092;2023-04-22T02:16:32;100995.69;;;12.94;46.33
72285;BME280;60220;53.552;10.092;2023-04-22T02:19:01;100996.66;;;13.35;45.28
72285;BME280;60220;53.552;10.092;2023-04-22T02:21:28;100991.13;;;13.04;45.37
72285;BME280;60220;53.552;10.092;2023-04-22T02:23:56;100988.25;;;12.69;45.52
72285;BME280;60220;53.552;10.092;2023-04-22T02:26:23;100987.91;;;12.39;47.08
72285;BME280;60220;53.552;10.092;2023-04-22T02:28:50;100976.25;;;12.52;47.02
72285;BME280;60220;53.552;10.092;2023-04-22T02:31:17;100967.03;;;12.26;47.66
72285;BME280;60220;53.552;10.092;2023-04-22T02:33:45;100974.75;;;12.39;48.02
72285;BME280;60220;53.552;10.092;2023-04-22T02:36:12;100970.63;;;12.72;47.41
72285;BME280;60220;53.552;10.092;2023-04-22T02:38:40;100972.28;;;12.78;46.23
72285;BME280;60220;53.552;10.092;2023-04-22T02:41:06;100968.06;;;13.15;45.65
72285;BME280;60220;53.552;10.092;2023-04-22T02:43:35;100975.13;;;13.15;45.87
72285;BME280;60220;53.552;10.092;2023-04-22T02:46:01;100967.69;;;12.89;46.64
72285;BME280;60220;53.552;10.092;2023-04-22T02:48:32;100959.88;;;12.84;46.46
72285;BME280;60220;53.552;10.092;2023-04-22T02:51:03;100958.78;;;12.48;47.03
72285;BME280;60220;53.552;10.092;2023-04-22T02:53:30;100944.91;;;12.37;47.85
72285;BME280;60220;53.552;10.092;2023-04-22T02:55:57;100951.94;;;11.82;49.06
72285;BME280;60220;53.552;10.092;2023-04-22T02:58:24;100946.22;;;12.14;48.58
72285;BME280;60220;53.552;10.092;2023-04-22T03:00:51;100951.09;;;12.84;46.00
72285;BME280;60220;53.552;10.092;2023-04-22T03:03:17;100952.03;;;13.27;46.11
72285;BME280;60220;53.552;10.092;2023-04-22T03:05:44;100945.00;;;12.80;46.32
72285;BME280;60220;53.552;10.092;2023-04-22T03:08:15;100948.78;;;12.66;47.40
72285;BME280;60220;53.552;10.092;2023-04-22T03:10:41;100946.66;;;13.30;45.73
72285;BME280;60220;53.552;10.092;2023-04-22T03:13:11;100954.06;;;13.15;46.31
72285;BME280;60220;53.552;10.092;2023-04-22T03:15:38;100938.50;;;13.44;45.28
72285;BME280;60220;53.552;10.092;2023-04-22T03:18:06;100945.41;;;13.05;46.34
72285;BME280;60220;53.552;10.092;2023-04-22T03:20:33;100935.03;;;12.96;46.87
72285;BME280;60220;53.552;10.092;2023-04-22T03:23:01;100928.31;;;12.34;47.83
72285;BME280;60220;53.552;10.092;2023-04-22T03:25:29;100921.25;;;12.36;48.23
72285;BME280;60220;53.552;10.092;2023-04-22T03:27:57;100930.34;;;12.66;47.12
72285;BME280;60220;53.552;10.092;2023-04-22T03:30:23;100928.78;;;12.56;47.58
72285;BME280;60220;53.552;10.092;2023-04-22T03:32:50;100923.59;;;12.52;48.04
72285;BME280;60220;53.552;10.092;2023-04-22T03:35:18;100919.78;;;12.69;47.77
72285;BME280;60220;53.552;10.092;2023-04-22T03:37:46;100922.00;;;12.42;48.25
72285;BME280;60220;53.552;10.092;2023-04-22T03:40:15;100917.97;;;12.71;48.55
72285;BME280;60220;53.552;10.092;2023-04-22T03:42:43;100911.81;;;12.24;48.11
72285;BME280;60220;53.552;10.092;2023-04-22T03:45:10;100907.59;;;11.56;49.90
72285;BME280;60220;53.552;10.092;2023-04-22T03:47:37;100913.59;;;12.22;48.86
72285;BME280;60220;53.552;10.092;2023-04-22T03:50:04;100906.69;;;11.57;50.35
72285;BME280;60220;53.552;10.092;2023-04-22T03:52:33;100903.38;;;12.04;49.40
72285;BME280;60220;53.552;10.092;2023-04-22T03:55:00;100901.53;;;11.51;50.61
72285;BME280;60220;53.552;10.092;2023-04-22T03:57:29;100909.41;;;12.11;50.37
72285;BME280;60220;53.552;10.092;2023-04-22T03:59:59;100903.38;;;12.04;49.64
72285;BME280;60220;53.552;10.092;2023-04-22T04:02:26;100893.75;;;12.01;49.74
72285;BME280;60220;53.552;10.092;2023-04-22T04:04:53;100890.81;;;12.21;49.63
72285;BME280;60220;53.552;10.092;2023-04-22T04:07:21;100894.91;;;12.36;48.94
72285;BME280;60220;53.552;10.092;2023-04-22T04:09:50;100896.22;;;12.12;49.81
72285;BME280;60220;53.552;10.092;2023-04-22T04:12:16;100882.00;;;11.70;50.01
72285;BME280;60220;53.552;10.092;2023-04-22T04:14:43;100890.47;;;11.29;51.30
72285;BME280;60220;53.552;10.092;2023-04-22T04:17:13;100885.91;;;12.00;50.44
72285;BME280;60220;53.552;10.092;2023-04-22T04:19:39;100880.50;;;12.09;49.43
72285;BME280;60220;53.552;10.092;2023-04-22T04:22:06;100891.00;;;11.54;50.54
72285;BME280;60220;53.552;10.092;2023-04-22T04:24:33;100885.75;;;11.52;50.73
72285;BME280;60220;53.552;10.092;2023-04-22T04:27:06;100892.28;;;12.37;49.56
72285;BME280;60220;53.552;10.092;2023-04-22T04:29:33;100887.16;;;11.78;50.44
72285;BME280;60220;53.552;10.092;2023-04-22T04:32:00;100882.75;;;11.80;50.89
72285;BME280;60220;53.552;10.092;2023-04-22T04:34:31;100880.94;;;11.82;50.68
72285;BME280;60220;53.552;10.092;2023-04-22T04:36:58;100880.25;;;12.24;50.04
72285;BME280;60220;53.552;10.092;2023-04-22T04:39:25;100868.28;;;12.52;49.28
72285;BME280;60220;53.552;10.092;2023-04-22T04:41:53;100863.44;;;12.76;48.75
72285;BME280;60220;53.552;10.092;2023-04-22T04:44:22;100859.22;;;12.21;49.81
72285;BME280;60220;53.552;10.092;2023-04-22T04:46:50;100869.81;;;12.18;50.08
72285;BME280;60220;53.552;10.092;2023-04-22T04:49:18;100876.81;;;13.10;48.24
72285;BME280;60220;53.552;10.092;2023-04-22T04:51:47;100868.41;;;12.91;48.25
72285;BME280;60220;53.552;10.092;2023-04-22T04:54:14;100869.75;;;12.67;48.97
72285;BME280;60220;53.552;10.092;2023-04-22T04:56:41;100863.78;;;12.12;50.56
72285;BME280;60220;53.552;10.092;2023-04-22T04:59:10;100866.69;;;12.90;48.57
72285;BME280;60220;53.552;10.092;2023-04-22T05:01:37;100871.59;;;13.05;48.77
72285;BME280;60220;53.552;10.092;2023-04-22T05:04:03;100862.13;;;12.97;48.52
72285;BME280;60220;53.552;10.092;2023-04-22T05:06:31;100864.88;;;12.92;48.47
72285;BME280;60220;53.552;10.092;2023-04-22T05:09:02;100877.06;;;12.53;48.86
72285;BME280;60220;53.552;10.092;2023-04-22T05:11:28;100882.41;;;12.93;48.69
72285;BME280;60220;53.552;10.092;2023-04-22T05:13:57;100864.34;;;13.19;47.98
72285;BME280;60220;53.552;10.092;2023-04-22T05:16:28;100864.38;;;12.73;48.87
72285;BME280;60220;53.552;10.092;2023-04-22T05:18:55;100857.97;;;12.42;49.51
72285;BME280;60220;53.552;10.092;2023-04-22T05:21:22;100861.66;;;12.32;49.84
72285;BME280;60220;53.552;10.092;2023-04-22T05:23:48;100864.53;;;12.18;50.50
72285;BME280;60220;53.552;10.092;2023-04-22T05:26:20;100867.72;;;12.37;50.51
72285;BME280;60220;53.552;10.092;2023-04-22T05:28:47;100884.41;;;12.36;51.25
72285;BME280;60220;53.552;10.092;2023-04-22T05:31:14;100875.41;;;12.92;48.84
72285;BME280;60220;53.552;10.092;2023-04-22T05:33:40;100871.41;;;12.73;48.89
72285;BME280;60220;53.552;10.092;2023-04-22T05:36:08;100865.00;;;12.86;48.74
72285;BME280;60220;53.552;10.092;2023-04-22T05:38:35;100861.78;;;12.72;48.93
72285;BME280;60220;53.552;10.092;2023-04-22T05:41:01;100846.03;;;13.10;48.69
72285;BME280;60220;53.552;10.092;2023-04-22T05:43:29;100840.38;;;12.87;49.65
72285;BME280;60220;53.552;10.092;2023-04-22T05:45:56;100860.38;;;12.54;50.33
72285;BME280;60220;53.552;10.092;2023-04-22T05:48:23;100853.56;;;12.42;49.45
72285;BME280;60220;53.552;10.092;2023-04-22T05:50:51;100852.19;;;13.12;48.75
72285;BME280;60220;53.552;10.092;2023-04-22T05:53:21;100852.94;;;13.56;47.23
72285;BME280;60220;53.552;10.092;2023-04-22T05:55:49;100851.44;;;13.04;48.46
72285;BME280;60220;53.552;10.092;2023-04-22T05:58:16;100852.00;;;12.78;48.83
72285;BME280;60220;53.552;10.092;2023-04-22T06:00:44;100854.53;;;12.83;49.83
72285;BME280;60220;53.552;10.092;2023-04-22T06:03:13;100841.38;;;13.24;48.56
72285;BME280;60220;53.552;10.092;2023-04-22T06:05:41;100846.47;;;13.30;48.17
72285;BME280;60220;53.552;10.092;2023-04-22T06:08:09;100837.38;;;13.80;47.22
72285;BME280;60220;53.552;10.092;2023-04-22T06:10:38;100841.56;;;13.54;48.38
72285;BME280;60220;53.552;10.092;2023-04-22T06:13:05;100843.69;;;12.97;48.93
72285;BME280;60220;53.552;10.092;2023-04-22T06:15:35;100837.63;;;12.93;49.03
72285;BME280;60220;53.552;10.092;2023-04-22T06:18:03;100842.72;;;13.01;49.06
72285;BME280;60220;53.552;10.092;2023-04-22T06:20:30;100842.59;;;13.07;48.89
72285;BME280;60220;53.552;10.092;2023-04-22T06:22:57;100837.56;;;13.74;48.01
72285;BME280;60220;53.552;10.092;2023-04-22T06:25:23;100836.75;;;13.71;47.49
72285;BME280;60220;53.552;10.092;2023-04-22T06:27:50;100834.56;;;13.88;48.08
72285;BME280;60220;53.552;10.092;2023-04-22T06:30:17;100830.56;;;13.72;47.34
72285;BME280;60220;53.552;10.092;2023-04-22T06:32:46;100828.81;;;14.06;47.19
72285;BME280;60220;53.552;10.092;2023-04-22T06:35:16;100833.28;;;13.69;47.68
72285;BME280;60220;53.552;10.092;2023-04-22T06:37:43;100827.47;;;13.90;47.97
72285;BME280;60220;53.552;10.092;2023-04-22T06:40:10;100834.47;;;14.25;46.96
72285;BME280;60220;53.552;10.092;2023-04-22T06:42:37;100833.00;;;14.49;45.96
72285;BME280;60220;53.552;10.092;2023-04-22T06:45:05;100834.44;;;14.27;46.31
72285;BME280;60220;53.552;10.092;2023-04-22T06:47:33;100834.38;;;14.62;46.50
72285;BME280;60220;53.552;10.092;2023-04-22T06:50:00;100847.88;;;15.13;45.94
72285;BME280;60220;53.552;10.092;2023-04-22T06:52:29;100846.59;;;14.66;45.40
72285;BME280;60220;53.552;10.092;2023-04-22T06:54:56;100835.03;;;14.99;45.48
72285;BME280;60220;53.552;10.092;2023-04-22T06:57:23;100832.69;;;14.26;46.82
72285;BME280;60220;53.552;10.092;2023-04-22T06:59:49;100824.09;;;14.19;47.32
72285;BME280;60220;53.552;10.092;2023-04-22T07:02:18;100832.19;;;14.11;47.19
72285;BME280;60220;53.552;10.092;2023-04-22T07:04:45;100833.56;;;14.26;47.09
72285;BME280;60220;53.552;10.092;2023-04-22T07:07:12;100833.88;;;14.49;46.62
72285;BME280;60220;53.552;10.092;2023-04-22T07:09:42;100824.06;;;14.53;46.54
72285;BME280;60220;53.552;10.092;2023-04-22T07:12:10;100819.31;;;14.33;46.81
72285;BME280;60220;53.552;10.092;2023-04-22T07:14:36;100818.25;;;15.30;45.06
72285;BME280;60220;53.552;10.092;2023-04-22T07:17:03;100825.38;;;15.83;43.74
72285;BME280;60220;53.552;10.092;2023-04-22T07:19:30;100822.25;;;15.43;44.02
72285;BME280;60220;53.552;10.092;2023-04-22T07:21:56;100820.00;;;14.72;45.95
72285;BME280;60220;53.552;10.092;2023-04-22T07:24:24;100817.88;;;15.14;44.95
72285;BME280;60220;53.552;10.092;2023-04-22T07:26:52;100821.84;;;15.27;45.20
72285;BME280;60220;53.552;10.092;2023-04-22T07:29:18;100821.56;;;15.36;44.39
72285;BME280;60220;53.552;10.092;2023-04-22T07:31:45;100823.28;;;15.39;44.55
72285;BME280;60220;53.552;10.092;2023-04-22T07:34:12;100817.38;;;15.29;45.41
72285;BME280;60220;53.552;10.092;2023-04-22T07:36:39;100810.78;;;15.97;43.81
72285;BME280;60220;53.552;10.092;2023-04-22T07:39:06;100827.44;;;16.50;43.55
72285;BME280;60220;53.552;10.092;2023-04-22T07:41:34;100807.34;;;16.69;42.92
72285;BME280;60220;53.552;10.092;2023-04-22T07:44:02;100807.88;;;16.29;43.21
72285;BME280;60220;53.552;10.092;2023-04-22T07:46:31;100812.69;;;15.67;45.11
72285;BME280;60220;53.552;10.092;2023-04-22T07:48:57;100806.06;;;16.31;43.49
72285;BME280;60220;53.552;10.092;2023-04-22T07:51:24;100800.38;;;16.66;43.04
72285;BME280;60220;53.552;10.092;2023-04-22T07:53:51;100816.31;;;16.15;44.39
72285;BME280;60220;53.552;10.092;2023-04-22T07:56:18;100804.66;;;15.94;44.67
72285;BME280;60220;53.552;10.092;2023-04-22T07:58:44;100799.50;;;15.91;44.66
72285;BME280;60220;53.552;10.092;2023-04-22T08:01:12;100800.44;;;16.15;44.46
72285;BME280;60220;53.552;10.092;2023-04-22T08:03:40;100798.81;;;16.36;43.59
72285;BME280;60220;53.552;10.092;2023-04-22T08:06:07;100801.81;;;16.01;44.38
72285;BME280;60220;53.552;10.092;2023-04-22T08:08:33;100800.88;;;16.03;44.71
72285;BME280;60220;53.552;10.092;2023-04-22T08:11:00;100787.66;;;16.51;45.29
72285;BME280;60220;53.552;10.092;2023-04-22T08:13:29;100786.84;;;16.97;43.36
72285;BME280;60220;53.552;10.092;2023-04-22T08:15:56;100774.75;;;17.12;43.15
72285;BME280;60220;53.552;10.092;2023-04-22T08:18:24;100767.16;;;16.79;44.51
72285;BME280;60220;53.552;10.092;2023-04-22T08:20:50;100769.13;;;16.74;43.77
72285;BME280;60220;53.552;10.092;2023-04-22T08:23:17;100770.78;;;16.78;44.65
72285;BME280;60220;53.552;10.092;2023-04-22T08:25:44;100773.84;;;16.43;45.23
72285;BME280;60220;53.552;10.092;2023-04-22T08:28:11;100778.34;;;17.33;43.68
72285;BME280;60220;53.552;10.092;2023-04-22T08:30:37;100785.50;;;17.31;44.01
72285;BME280;60220;53.552;10.092;2023-04-22T08:33:04;100775.94;;;17.70;42.67
72285;BME280;60220;53.552;10.092;2023-04-22T08:35:34;100767.25;;;18.47;42.01
72285;BME280;60220;53.552;10.092;2023-04-22T08:38:01;100764.34;;;17.93;41.38
72285;BME280;60220;53.552;10.092;2023-04-22T08:40:28;100757.84;;;18.20;41.86
72285;BME280;60220;53.552;10.092;2023-04-22T08:42:56;100769.13;;;18.05;42.04
72285;BME280;60220;53.552;10.092;2023-04-22T08:45:23;100758.94;;;18.74;41.41
72285;BME280;60220;53.552;10.092;2023-04-22T08:47:51;100757.69;;;18.82;41.17
72285;BME280;60220;53.552;10.092;2023-04-22T08:50:19;100766.31;;;19.42;39.81
72285;BME280;60220;53.552;10.092;2023-04-22T08:52:47;100761.09;;;18.06;42.97
72285;BME280;60220;53.552;10.092;2023-04-22T08:55:17;100765.28;;;18.12;42.47
72285;BME280;60220;53.552;10.092;2023-04-22T08:57:46;100753.38;;;17.58;42.98
72285;BME280;60220;53.552;10.092;2023-04-22T09:00:16;100765.66;;;17.62;43.45
72285;BME280;60220;53.552;10.092;2023-04-22T09:02:45;100757.53;;;17.66;43.39
72285;BME280;60220;53.552;10.092;2023-04-22T09:05:13;100756.31;;;17.94;44.03
72285;BME280;60220;53.552;10.092;2023-04-22T09:07:40;100764.38;;;18.52;42.20
72285;BME280;60220;53.552;10.092;2023-04-22T09:10:09;100753.34;;;18.80;42.03
72285;BME280;60220;53.552;10.092;2023-04-22T09:12:37;100756.75;;;19.57;40.40
72285;BME280;60220;53.552;10.092;2023-04-22T09:15:06;100755.94;;;19.55;41.23
72285;BME280;60220;53.552;10.092;2023-04-22T09:17:34;100756.03;;;19.88;39.73
72285;BME280;60220;53.552;10.092;2023-04-22T09:20:04;100762.06;;;20.08;39.81
72285;BME280;60220;53.552;10.092;2023-04-22T09:22:39;100748.44;;;20.14;39.31
72285;BME280;60220;53.552;10.092;2023-04-22T09:25:14;100753.16;;;20.59;38.59
72285;BME280;60220;53.552;10.092;2023-04-22T09:27:41;100748.19;;;19.50;40.18
72285;BME280;60220;53.552;10.092;2023-04-22T09:30:09;100753.44;;;20.20;40.44
72285;BME280;60220;53.552;10.092;2023-04-22T09:32:36;100757.34;;;19.45;41.08
72285;BME280;60220;53.552;10.092;2023-04-22T09:35:03;100754.72;;;19.96;39.17
72285;BME280;60220;53.552;10.092;2023-04-22T09:37:29;100743.13;;;19.80;39.70
72285;BME280;60220;53.552;10.092;2023-04-22T09:39:57;100741.16;;;20.99;38.35
72285;BME280;60220;53.552;10.092;2023-04-22T09:42:26;100740.56;;;19.43;41.52
72285;BME280;60220;53.552;10.092;2023-04-22T09:44:53;100730.19;;;20.07;39.35
72285;BME280;60220;53.552;10.092;2023-04-22T09:47:20;100729.84;;;20.63;38.22
72285;BME280;60220;53.552;10.092;2023-04-22T09:49:49;100728.22;;;20.10;39.83
72285;BME280;60220;53.552;10.092;2023-04-22T09:52:22;100728.75;;;19.48;41.25
72285;BME280;60220;53.552;10.092;2023-04-22T09:54:51;100729.09;;;19.94;40.31
72285;BME280;60220;53.552;10.092;2023-04-22T09:57:21;100739.50;;;20.15;41.37
72285;BME280;60220;53.552;10.092;2023-04-22T09:59:51;100728.06;;;20.31;39.40
72285;BME280;60220;53.552;10.092;2023-04-22T10:02:27;100727.94;;;19.82;40.49
72285;BME280;60220;53.552;10.092;2023-04-22T10:04:54;100728.78;;;20.00;40.82
72285;BME280;60220;53.552;10.092;2023-04-22T10:07:22;100721.63;;;19.49;41.92
72285;BME280;60220;53.552;10.092;2023-04-22T10:09:50;100719.16;;;19.97;41.21
72285;BME280;60220;53.552;10.092;2023-04-22T10:12:17;100712.06;;;20.31;40.40
72285;BME280;60220;53.552;10.092;2023-04-22T10:14:44;100708.13;;;20.20;41.62
72285;BME280;60220;53.552;10.092;2023-04-22T10:17:16;100712.19;;;20.45;40.15
72285;BME280;60220;53.552;10.092;2023-04-22T10:19:46;100696.28;;;20.59;39.79
72285;BME280;60220;53.552;10.092;2023-04-22T10:22:13;100700.25;;;20.52;40.03
72285;BME280;60220;53.552;10.092;2023-04-22T10:24:40;100687.69;;;21.01;39.23
72285;BME280;60220;53.552;10.092;2023-04-22T10:27:09;100684.50;;;20.94;38.94
72285;BME280;60220;53.552;10.092;2023-04-22T10:29:38;100690.47;;;20.18;40.15
72285;BME280;60220;53.552;10.092;2023-04-22T10:32:25;100694.84;;;21.00;39.40
72285;BME280;60220;53.552;10.092;2023-04-22T10:35:12;100687.25;;;20.77;39.58
72285;BME280;60220;53.552;10.092;2023-04-22T10:37:43;100684.56;;;21.09;38.77
72285;BME280;60220;53.552;10.092;2023-04-22T10:40:14;100676.16;;;21.00;38.92
72285;BME280;60220;53.552;10.092;2023-04-22T10:42:47;100681.94;;;21.54;39.15
72285;BME280;60220;53.552;10.092;2023-04-22T10:45:14;100681.75;;;20.80;38.95
72285;BME280;60220;53.552;10.092;2023-04-22T10:47:43;100675.31;;;21.16;39.13
72285;BME280;60220;53.552;10.092;2023-04-22T10:50:20;100668.91;;;21.02;38.92
72285;BME280;60220;53.552;10.092;2023-04-22T10:52:50;100665.47;;;21.00;38.98
72285;BME280;60220;53.552;10.092;2023-04-22T10:55:20;100664.63;;;21.89;38.12
72285;BME280;60220;53.552;10.092;2023-04-22T10:57:48;100657.09;;;21.22;38.71
72285;BME280;60220;53.552;10.092;2023-04-22T11:00:23;100651.59;;;21.25;39.07
72285;BME280;60220;53.552;10.092;2023-04-22T11:02:53;100649.78;;;21.10;40.24
72285;BME280;60220;53.552;10.092;2023-04-22T11:05:22;100644.66;;;21.97;38.13
72285;BME280;60220;53.552;10.092;2023-04-22T11:07:52;100643.22;;;22.05;38.33
72285;BME280;60220;53.552;10.092;2023-04-22T11:10:39;100641.72;;;21.71;39.35
72285;BME280;60220;53.552;10.092;2023-04-22T11:13:08;100638.56;;;21.35;38.73
72285;BME280;60220;53.552;10.092;2023-04-22T11:15:37;100632.63;;;21.74;38.57
72285;BME280;60220;53.552;10.092;2023-04-22T11:18:19;100618.50;;;22.02;37.52
72285;BME280;60220;53.552;10.092;2023-04-22T11:20:47;100621.81;;;22.05;38.04
72285;BME280;60220;53.552;10.092;2023-04-22T11:23:21;100625.53;;;22.17;37.50
72285;BME280;60220;53.552;10.092;2023-04-22T11:25:53;100630.84;;;21.74;37.32
72285;BME280;60220;53.552;10.092;2023-04-22T11:28:22;100621.09;;;21.87;36.87
72285;BME280;60220;53.552;10.092;2023-04-22T11:30:49;100617.09;;;21.66;38.16
72285;BME280;60220;53.552;10.092;2023-04-22T11:33:19;100616.28;;;21.50;37.87
72285;BME280;60220;53.552;10.092;2023-04-22T11:35:48;100601.69;;;22.00;36.89
72285;BME280;60220;53.552;10.092;2023-04-22T11:38:15;100610.72;;;22.40;37.53
72285;BME280;60220;53.552;10.092;2023-04-22T11:40:42;100596.66;;;21.79;36.84
72285;BME280;60220;53.552;10.092;2023-04-22T11:43:10;100592.28;;;21.78;36.97
72285;BME280;60220;53.552;10.092;2023-04-22T11:45:38;100597.41;;;21.53;37.37
72285;BME280;60220;53.552;10.092;2023-04-22T11:48:08;100591.69;;;21.73;37.19
72285;BME280;60220;53.552;10.092;2023-04-22T11:50:38;100603.16;;;21.61;38.37
72285;BME280;60220;53.552;10.092;2023-04-22T11:53:13;100592.13;;;21.96;37.11
72285;BME280;60220;53.552;10.092;2023-04-22T11:55:40;100591.56;;;22.05;37.15
72285;BME280;60220;53.552;10.092;2023-04-22T11:58:09;100585.03;;;22.64;35.31
72285;BME280;60220;53.552;10.092;2023-04-22T12:00:39;100588.22;;;22.70;35.37
72285;BME280;60220;53.552;10.092;2023-04-22T12:03:12;100586.41;;;22.71;36.98
72285;BME280;60220;53.552;10.092;2023-04-22T12:05:42;100584.28;;;22.07;36.96
72285;BME280;60220;53.552;10.092;2023-04-22T12:08:10;100575.94;;;21.83;36.69
72285;BME280;60220;53.552;10.092;2023-04-22T12:10:40;100572.50;;;22.38;36.15
72285;BME280;60220;53.552;10.092;2023-04-22T12:13:07;100574.41;;;22.77;37.48
72285;BME280;60220;53.552;10.092;2023-04-22T12:15:39;100573.28;;;22.81;36.20
72285;BME280;60220;53.552;10.092;2023-04-22T12:18:06;100562.16;;;23.26;35.72
72285;BME280;60220;53.552;10.092;2023-04-22T12:20:34;100564.00;;;22.45;36.09
72285;BME280;60220;53.552;10.092;2023-04-22T12:23:02;100565.34;;;22.65;36.54
72285;BME280;60220;53.552;10.092;2023-04-22T12:25:29;100564.16;;;22.56;35.71
72285;BME280;60220;53.552;10.092;2023-04-22T12:27:58;100557.88;;;22.97;36.13
72285;BME280;60220;53.552;10.092;2023-04-22T12:30:25;100559.47;;;22.87;35.59
72285;BME280;60220;53.552;10.092;2023-04-22T12:32:52;100559.19;;;23.56;35.05
72285;BME280;60220;53.552;10.092;2023-04-22T12:35:20;100564.47;;;22.79;35.90
72285;BME280;60220;53.552;10.092;2023-04-22T12:37:46;100551.47;;;22.46;36.59
72285;BME280;60220;53.552;10.092;2023-04-22T12:40:14;100541.81;;;22.43;36.46
72285;BME280;60220;53.552;10.092;2023-04-22T12:42:44;100546.22;;;22.44;36.33
72285;BME280;60220;53.552;10.092;2023-04-22T12:45:10;100546.13;;;22.72;36.97